sensor_id;sensor_type;location;lat;lon;timestamp;P1;durP1;ratioP1;P2;durP2;ratioP2
20036;SDS011;10179;42.640;23.312;2024-01-07T00:00:49;17.45;;;8.95;;
20036;SDS011;10179;42.640;23.312;2024-01-07T00:03:14;17.90;;;9.77;;
20036;SDS011;10179;42.640;23.312;2024-01-07T00:05:39;17.95;;;8.80;;
20036;SDS011;10179;42.640;23.312;2024-01-07T00:08:05;17.33;;;9.13;;
20036;SDS011;10179;42.640;23.312;2024-01-07T00:10:30;13.80;;;8.05;;
20036;SDS011;10179;42.640;23.312;2024-01-07T00:12:56;15.38;;;8.07;;
20036;SDS011;10179;42.640;23.312;2024-01-07T00:15:21;19.52;;;8.70;;
20036;SDS011;10179;42.640;23.312;2024-01-07T00:17:47;16.88;;;7.57;;
20036;SDS011;10179;42.640;23.312;2024-01-07T00:20:12;11.68;;;7.13;;
20036;SDS011;10179;42.640;23.312;2024-01-07T00:22:37;14.40;;;7.95;;
20036;SDS011;10179;42.640;23.312;2024-01-07T00:25:03;17.60;;;8.18;;
20036;SDS011;10179;42.640;23.312;2024-01-07T00:27:28;16.35;;;8.57;;
20036;SDS011;10179;42.640;23.312;2024-01-07T00:29:54;14.35;;;8.48;;
20036;SDS011;10179;42.640;23.312;2024-01-07T00:32:19;21.25;;;9.73;;
20036;SDS011;10179;42.640;23.312;2024-01-07T00:34:45;18.67;;;9.27;;
20036;SDS011;10179;42.640;23.312;2024-01-07T00:37:10;17.00;;;9.40;;
20036;SDS011;10179;42.640;23.312;2024-01-07T00:39:35;20.63;;;10.93;;
20036;SDS011;10179;42.640;23.312;2024-01-07T00:42:01;24.92;;;11.77;;
20036;SDS011;10179;42.640;23.312;2024-01-07T00:44:26;23.13;;;12.13;;
20036;SDS011;10179;42.640;23.312;2024-01-07T00:46:51;18.45;;;10.10;;
20036;SDS011;10179;42.640;23.312;2024-01-07T00:49:17;22.60;;;10.25;;
20036;SDS011;10179;42.640;23.312;2024-01-07T00:51:42;17.65;;;10.25;;
20036;SDS011;10179;42.640;23.312;2024-01-07T00:54:08;20.92;;;10.05;;
20036;SDS011;10179;42.640;23.312;2024-01-07T00:56:33;21.33;;;9.82;;
20036;SDS011;10179;42.640;23.312;2024-01-07T00:58:58;17.55;;;9.80;;
20036;SDS011;10179;42.640;23.312;2024-01-07T01:01:24;16.98;;;9.90;;
20036;SDS011;10179;42.640;23.312;2024-01-07T01:03:49;18.38;;;10.32;;
20036;SDS011;10179;42.640;23.312;2024-01-07T01:06:14;16.23;;;9.15;;
20036;SDS011;10179;42.640;23.312;2024-01-07T01:08:40;15.07;;;9.82;;
20036;SDS011;10179;42.640;23.312;2024-01-07T01:11:05;18.15;;;10.05;;
20036;SDS011;10179;42.640;23.312;2024-01-07T01:13:34;16.17;;;10.38;;
20036;SDS011;10179;42.640;23.312;2024-01-07T01:15:59;18.00;;;10.70;;
20036;SDS011;10179;42.640;23.312;2024-01-07T01:18:25;17.70;;;10.32;;
20036;SDS011;10179;42.640;23.312;2024-01-07T01:20:50;21.85;;;10.38;;
20036;SDS011;10179;42.640;23.312;2024-01-07T01:23:15;20.73;;;11.35;;
20036;SDS011;10179;42.640;23.312;2024-01-07T01:25:41;16.63;;;9.82;;
20036;SDS011;10179;42.640;23.312;2024-01-07T01:28:06;18.02;;;11.18;;
20036;SDS011;10179;42.640;23.312;2024-01-07T01:30:31;16.90;;;9.80;;
20036;SDS011;10179;42.640;23.312;2024-01-07T01:32:57;16.25;;;9.68;;
20036;SDS011;10179;42.640;23.312;2024-01-07T01:35:22;18.80;;;10.75;;
20036;SDS011;10179;42.640;23.312;2024-01-07T01:37:48;21.98;;;11.00;;
20036;SDS011;10179;42.640;23.312;2024-01-07T01:40:13;21.95;;;11.15;;
20036;SDS011;10179;42.640;23.312;2024-01-07T01:42:42;20.58;;;11.77;;
20036;SDS011;10179;42.640;23.312;2024-01-07T01:45:08;20.83;;;12.15;;
20036;SDS011;10179;42.640;23.312;2024-01-07T01:47:34;26.75;;;12.38;;
20036;SDS011;10179;42.640;23.312;2024-01-07T01:49:59;20.17;;;12.18;;
20036;SDS011;10179;42.640;23.312;2024-01-07T01:52:25;20.15;;;11.52;;
20036;SDS011;10179;42.640;23.312;2024-01-07T01:54:51;24.95;;;12.40;;
20036;SDS011;10179;42.640;23.312;2024-01-07T01:57:19;20.52;;;10.90;;
20036;SDS011;10179;42.640;23.312;2024-01-07T01:59:47;22.77;;;10.75;;
20036;SDS011;10179;42.640;23.312;2024-01-07T02:02:13;18.35;;;11.00;;
20036;SDS011;10179;42.640;23.312;2024-01-07T02:04:39;18.55;;;9.30;;
20036;SDS011;10179;42.640;23.312;2024-01-07T02:07:04;14.00;;;8.80;;
20036;SDS011;10179;42.640;23.312;2024-01-07T02:09:29;9.88;;;6.50;;
20036;SDS011;10179;42.640;23.312;2024-01-07T02:12:04;9.13;;;5.65;;
20036;SDS011;10179;42.640;23.312;2024-01-07T02:14:30;8.00;;;4.63;;
20036;SDS011;10179;42.640;23.312;2024-01-07T02:16:56;6.68;;;4.07;;
20036;SDS011;10179;42.640;23.312;2024-01-07T02:19:21;7.55;;;3.63;;
20036;SDS011;10179;42.640;23.312;2024-01-07T02:21:47;8.75;;;3.70;;
20036;SDS011;10179;42.640;23.312;2024-01-07T02:24:15;11.82;;;3.78;;
20036;SDS011;10179;42.640;23.312;2024-01-07T02:26:41;8.98;;;3.40;;
20036;SDS011;10179;42.640;23.312;2024-01-07T02:29:06;8.90;;;2.92;;
20036;SDS011;10179;42.640;23.312;2024-01-07T02:31:31;6.78;;;2.78;;
20036;SDS011;10179;42.640;23.312;2024-01-07T02:33:57;6.15;;;2.42;;
20036;SDS011;10179;42.640;23.312;2024-01-07T02:36:22;4.40;;;2.88;;
20036;SDS011;10179;42.640;23.312;2024-01-07T02:38:47;5.13;;;2.50;;
20036;SDS011;10179;42.640;23.312;2024-01-07T02:41:13;4.47;;;2.90;;
20036;SDS011;10179;42.640;23.312;2024-01-07T02:43:38;4.93;;;2.60;;
20036;SDS011;10179;42.640;23.312;2024-01-07T02:46:03;3.63;;;2.65;;
20036;SDS011;10179;42.640;23.312;2024-01-07T02:48:29;2.72;;;2.05;;
20036;SDS011;10179;42.640;23.312;2024-01-07T02:50:55;3.03;;;2.60;;
20036;SDS011;10179;42.640;23.312;2024-01-07T02:53:21;3.85;;;2.45;;
20036;SDS011;10179;42.640;23.312;2024-01-07T02:55:46;6.93;;;2.50;;
20036;SDS011;10179;42.640;23.312;2024-01-07T02:58:11;3.97;;;2.58;;
20036;SDS011;10179;42.640;23.312;2024-01-07T03:00:37;6.43;;;2.03;;
20036;SDS011;10179;42.640;23.312;2024-01-07T03:03:02;2.10;;;1.38;;
20036;SDS011;10179;42.640;23.312;2024-01-07T03:05:28;8.02;;;2.58;;
20036;SDS011;10179;42.640;23.312;2024-01-07T03:07:57;3.95;;;1.92;;
20036;SDS011;10179;42.640;23.312;2024-01-07T03:10:23;5.38;;;2.60;;
20036;SDS011;10179;42.640;23.312;2024-01-07T03:12:48;4.20;;;2.80;;
20036;SDS011;10179;42.640;23.312;2024-01-07T03:15:14;3.63;;;2.60;;
20036;SDS011;10179;42.640;23.312;2024-01-07T03:17:39;6.28;;;2.25;;
20036;SDS011;10179;42.640;23.312;2024-01-07T03:20:04;6.45;;;2.60;;
20036;SDS011;10179;42.640;23.312;2024-01-07T03:22:32;14.55;;;6.03;;
20036;SDS011;10179;42.640;23.312;2024-01-07T03:24:58;15.05;;;8.88;;
20036;SDS011;10179;42.640;23.312;2024-01-07T03:27:23;12.80;;;8.35;;
20036;SDS011;10179;42.640;23.312;2024-01-07T03:29:48;13.57;;;8.35;;
20036;SDS011;10179;42.640;23.312;2024-01-07T03:32:14;13.48;;;8.57;;
20036;SDS011;10179;42.640;23.312;2024-01-07T03:34:39;14.32;;;8.63;;
20036;SDS011;10179;42.640;23.312;2024-01-07T03:37:05;16.90;;;9.02;;
20036;SDS011;10179;42.640;23.312;2024-01-07T03:39:34;17.45;;;8.73;;
20036;SDS011;10179;42.640;23.312;2024-01-07T03:41:59;12.05;;;8.18;;
20036;SDS011;10179;42.640;23.312;2024-01-07T03:44:25;15.25;;;7.68;;
20036;SDS011;10179;42.640;23.312;2024-01-07T03:46:51;14.57;;;7.93;;
20036;SDS011;10179;42.640;23.312;2024-01-07T03:49:16;13.48;;;8.73;;
20036;SDS011;10179;42.640;23.312;2024-01-07T03:51:43;13.45;;;7.93;;
20036;SDS011;10179;42.640;23.312;2024-01-07T03:54:08;15.68;;;8.38;;
20036;SDS011;10179;42.640;23.312;2024-01-07T03:56:34;16.13;;;7.82;;
20036;SDS011;10179;42.640;23.312;2024-01-07T03:58:59;13.43;;;7.47;;
20036;SDS011;10179;42.640;23.312;2024-01-07T04:01:25;11.02;;;7.43;;
20036;SDS011;10179;42.640;23.312;2024-01-07T04:03:50;11.00;;;7.45;;
20036;SDS011;10179;42.640;23.312;2024-01-07T04:06:15;14.35;;;6.90;;
20036;SDS011;10179;42.640;23.312;2024-01-07T04:08:41;12.15;;;7.70;;
20036;SDS011;10179;42.640;23.312;2024-01-07T04:11:06;15.30;;;6.88;;
20036;SDS011;10179;42.640;23.312;2024-01-07T04:13:32;12.57;;;7.28;;
20036;SDS011;10179;42.640;23.312;2024-01-07T04:15:57;17.77;;;7.22;;
20036;SDS011;10179;42.640;23.312;2024-01-07T04:18:22;11.80;;;7.65;;
20036;SDS011;10179;42.640;23.312;2024-01-07T04:20:48;14.40;;;7.75;;
20036;SDS011;10179;42.640;23.312;2024-01-07T04:23:13;14.88;;;7.43;;
20036;SDS011;10179;42.640;23.312;2024-01-07T04:25:39;13.63;;;7.18;;
20036;SDS011;10179;42.640;23.312;2024-01-07T04:28:05;14.70;;;7.40;;
20036;SDS011;10179;42.640;23.312;2024-01-07T04:30:31;12.75;;;7.05;;
20036;SDS011;10179;42.640;23.312;2024-01-07T04:32:56;6.93;;;4.97;;
20036;SDS011;10179;42.640;23.312;2024-01-07T04:35:22;5.63;;;4.10;;
20036;SDS011;10179;42.640;23.312;2024-01-07T04:37:47;10.98;;;5.90;;
20036;SDS011;10179;42.640;23.312;2024-01-07T04:40:13;15.13;;;6.80;;
20036;SDS011;10179;42.640;23.312;2024-01-07T04:42:38;10.63;;;5.72;;
20036;SDS011;10179;42.640;23.312;2024-01-07T04:45:04;11.05;;;5.53;;
20036;SDS011;10179;42.640;23.312;2024-01-07T04:47:30;9.07;;;4.78;;
20036;SDS011;10179;42.640;23.312;2024-01-07T04:49:56;6.88;;;4.57;;
20036;SDS011;10179;42.640;23.312;2024-01-07T04:52:22;7.53;;;4.43;;
20036;SDS011;10179;42.640;23.312;2024-01-07T04:57:16;6.55;;;3.72;;
20036;SDS011;10179;42.640;23.312;2024-01-07T04:59:41;6.20;;;3.65;;
20036;SDS011;10179;42.640;23.312;2024-01-07T05:02:06;7.28;;;4.00;;
20036;SDS011;10179;42.640;23.312;2024-01-07T05:04:32;8.32;;;3.58;;
20036;SDS011;10179;42.640;23.312;2024-01-07T05:06:57;8.60;;;4.35;;
20036;SDS011;10179;42.640;23.312;2024-01-07T05:09:23;5.70;;;3.42;;
20036;SDS011;10179;42.640;23.312;2024-01-07T05:11:48;4.43;;;3.58;;
20036;SDS011;10179;42.640;23.312;2024-01-07T05:14:14;7.43;;;3.78;;
20036;SDS011;10179;42.640;23.312;2024-01-07T05:16:39;7.10;;;4.25;;
20036;SDS011;10179;42.640;23.312;2024-01-07T05:19:04;10.05;;;5.13;;
20036;SDS011;10179;42.640;23.312;2024-01-07T05:21:30;6.38;;;4.55;;
20036;SDS011;10179;42.640;23.312;2024-01-07T05:23:55;9.48;;;5.25;;
20036;SDS011;10179;42.640;23.312;2024-01-07T05:26:21;11.88;;;5.55;;
20036;SDS011;10179;42.640;23.312;2024-01-07T05:28:46;8.88;;;4.75;;
20036;SDS011;10179;42.640;23.312;2024-01-07T05:31:15;9.25;;;5.45;;
20036;SDS011;10179;42.640;23.312;2024-01-07T05:33:44;8.73;;;5.40;;
20036;SDS011;10179;42.640;23.312;2024-01-07T05:36:10;7.60;;;5.18;;
20036;SDS011;10179;42.640;23.312;2024-01-07T05:38:36;11.50;;;5.43;;
20036;SDS011;10179;42.640;23.312;2024-01-07T05:41:02;9.23;;;5.05;;
20036;SDS011;10179;42.640;23.312;2024-01-07T05:43:27;10.93;;;5.32;;
20036;SDS011;10179;42.640;23.312;2024-01-07T05:45:53;7.47;;;4.82;;
20036;SDS011;10179;42.640;23.312;2024-01-07T05:48:20;9.30;;;5.55;;
20036;SDS011;10179;42.640;23.312;2024-01-07T05:50:46;10.48;;;5.75;;
20036;SDS011;10179;42.640;23.312;2024-01-07T05:53:12;9.98;;;6.22;;
20036;SDS011;10179;42.640;23.312;2024-01-07T05:55:37;9.57;;;4.78;;
20036;SDS011;10179;42.640;23.312;2024-01-07T05:58:03;8.63;;;5.25;;
20036;SDS011;10179;42.640;23.312;2024-01-07T06:00:28;8.27;;;4.80;;
20036;SDS011;10179;42.640;23.312;2024-01-07T06:02:53;10.38;;;5.57;;
20036;SDS011;10179;42.640;23.312;2024-01-07T06:05:19;12.43;;;6.18;;
20036;SDS011;10179;42.640;23.312;2024-01-07T06:07:44;12.15;;;6.53;;
20036;SDS011;10179;42.640;23.312;2024-01-07T06:10:09;9.30;;;5.45;;
20036;SDS011;10179;42.640;23.312;2024-01-07T06:12:35;8.32;;;5.45;;
20036;SDS011;10179;42.640;23.312;2024-01-07T06:15:00;8.32;;;5.57;;
20036;SDS011;10179;42.640;23.312;2024-01-07T06:17:26;10.27;;;6.05;;
20036;SDS011;10179;42.640;23.312;2024-01-07T06:19:51;10.75;;;6.10;;
20036;SDS011;10179;42.640;23.312;2024-01-07T06:22:16;13.05;;;5.80;;
20036;SDS011;10179;42.640;23.312;2024-01-07T06:24:42;10.52;;;6.18;;
20036;SDS011;10179;42.640;23.312;2024-01-07T06:27:07;7.97;;;5.57;;
20036;SDS011;10179;42.640;23.312;2024-01-07T06:29:32;12.20;;;6.43;;
20036;SDS011;10179;42.640;23.312;2024-01-07T06:31:58;9.90;;;6.15;;
20036;SDS011;10179;42.640;23.312;2024-01-07T06:34:24;12.00;;;6.18;;
20036;SDS011;10179;42.640;23.312;2024-01-07T06:36:49;14.40;;;6.85;;
20036;SDS011;10179;42.640;23.312;2024-01-07T06:39:15;9.48;;;6.40;;
20036;SDS011;10179;42.640;23.312;2024-01-07T06:41:40;10.55;;;6.38;;
20036;SDS011;10179;42.640;23.312;2024-01-07T06:44:05;9.93;;;6.30;;
20036;SDS011;10179;42.640;23.312;2024-01-07T06:46:31;10.25;;;6.28;;
20036;SDS011;10179;42.640;23.312;2024-01-07T06:48:56;10.10;;;6.22;;
20036;SDS011;10179;42.640;23.312;2024-01-07T06:51:22;13.30;;;7.03;;
20036;SDS011;10179;42.640;23.312;2024-01-07T06:53:47;17.60;;;7.05;;
20036;SDS011;10179;42.640;23.312;2024-01-07T06:56:13;10.15;;;6.30;;
20036;SDS011;10179;42.640;23.312;2024-01-07T06:58:38;10.07;;;6.40;;
20036;SDS011;10179;42.640;23.312;2024-01-07T07:01:06;11.75;;;5.60;;
20036;SDS011;10179;42.640;23.312;2024-01-07T07:03:32;11.52;;;6.65;;
20036;SDS011;10179;42.640;23.312;2024-01-07T07:05:57;12.50;;;6.47;;
20036;SDS011;10179;42.640;23.312;2024-01-07T07:08:23;13.27;;;7.05;;
20036;SDS011;10179;42.640;23.312;2024-01-07T07:10:48;11.23;;;6.65;;
20036;SDS011;10179;42.640;23.312;2024-01-07T07:13:13;11.80;;;6.93;;
20036;SDS011;10179;42.640;23.312;2024-01-07T07:15:39;10.80;;;6.32;;
20036;SDS011;10179;42.640;23.312;2024-01-07T07:18:05;11.10;;;6.80;;
20036;SDS011;10179;42.640;23.312;2024-01-07T07:20:30;11.27;;;7.07;;
20036;SDS011;10179;42.640;23.312;2024-01-07T07:22:56;11.00;;;6.70;;
20036;SDS011;10179;42.640;23.312;2024-01-07T07:25:22;11.63;;;7.22;;
20036;SDS011;10179;42.640;23.312;2024-01-07T07:27:47;11.02;;;6.60;;
20036;SDS011;10179;42.640;23.312;2024-01-07T07:30:12;8.68;;;5.95;;
20036;SDS011;10179;42.640;23.312;2024-01-07T07:32:39;10.80;;;6.20;;
20036;SDS011;10179;42.640;23.312;2024-01-07T07:35:06;11.13;;;5.45;;
20036;SDS011;10179;42.640;23.312;2024-01-07T07:37:32;7.95;;;5.22;;
20036;SDS011;10179;42.640;23.312;2024-01-07T07:39:58;6.05;;;4.05;;
20036;SDS011;10179;42.640;23.312;2024-01-07T07:42:23;7.43;;;4.40;;
20036;SDS011;10179;42.640;23.312;2024-01-07T07:44:48;8.10;;;5.13;;
20036;SDS011;10179;42.640;23.312;2024-01-07T07:47:14;8.07;;;4.88;;
20036;SDS011;10179;42.640;23.312;2024-01-07T07:49:39;9.95;;;4.60;;
20036;SDS011;10179;42.640;23.312;2024-01-07T07:52:06;8.02;;;5.60;;
20036;SDS011;10179;42.640;23.312;2024-01-07T07:54:33;10.25;;;4.97;;
20036;SDS011;10179;42.640;23.312;2024-01-07T07:56:59;13.35;;;5.40;;
20036;SDS011;10179;42.640;23.312;2024-01-07T07:59:24;9.45;;;4.38;;
20036;SDS011;10179;42.640;23.312;2024-01-07T08:01:50;8.45;;;5.20;;
20036;SDS011;10179;42.640;23.312;2024-01-07T08:04:15;7.05;;;4.60;;
20036;SDS011;10179;42.640;23.312;2024-01-07T08:06:41;10.48;;;5.63;;
20036;SDS011;10179;42.640;23.312;2024-01-07T08:09:07;11.38;;;5.78;;
20036;SDS011;10179;42.640;23.312;2024-01-07T08:11:33;10.32;;;5.90;;
20036;SDS011;10179;42.640;23.312;2024-01-07T08:13:59;8.70;;;5.28;;
20036;SDS011;10179;42.640;23.312;2024-01-07T08:16:26;7.07;;;4.57;;
20036;SDS011;10179;42.640;23.312;2024-01-07T08:18:52;13.85;;;6.35;;
20036;SDS011;10179;42.640;23.312;2024-01-07T08:21:17;13.05;;;6.47;;
20036;SDS011;10179;42.640;23.312;2024-01-07T08:23:42;11.23;;;4.57;;
20036;SDS011;10179;42.640;23.312;2024-01-07T08:26:08;12.88;;;7.43;;
20036;SDS011;10179;42.640;23.312;2024-01-07T08:28:33;13.00;;;6.68;;
20036;SDS011;10179;42.640;23.312;2024-01-07T08:30:59;10.88;;;6.22;;
20036;SDS011;10179;42.640;23.312;2024-01-07T08:33:24;10.95;;;5.40;;
20036;SDS011;10179;42.640;23.312;2024-01-07T08:35:50;12.73;;;6.10;;
20036;SDS011;10179;42.640;23.312;2024-01-07T08:38:15;10.65;;;5.75;;
20036;SDS011;10179;42.640;23.312;2024-01-07T08:40:40;10.23;;;5.43;;
20036;SDS011;10179;42.640;23.312;2024-01-07T08:43:06;10.70;;;5.47;;
20036;SDS011;10179;42.640;23.312;2024-01-07T08:45:31;6.80;;;4.53;;
20036;SDS011;10179;42.640;23.312;2024-01-07T08:47:57;20.20;;;10.73;;
20036;SDS011;10179;42.640;23.312;2024-01-07T08:50:22;8.93;;;5.82;;
20036;SDS011;10179;42.640;23.312;2024-01-07T08:52:47;14.38;;;7.47;;
20036;SDS011;10179;42.640;23.312;2024-01-07T08:55:13;13.93;;;6.93;;
20036;SDS011;10179;42.640;23.312;2024-01-07T08:57:38;12.57;;;5.55;;
20036;SDS011;10179;42.640;23.312;2024-01-07T09:00:04;8.70;;;5.15;;
20036;SDS011;10179;42.640;23.312;2024-01-07T09:02:32;10.43;;;6.20;;
20036;SDS011;10179;42.640;23.312;2024-01-07T09:04:58;11.25;;;6.50;;
20036;SDS011;10179;42.640;23.312;2024-01-07T09:07:23;12.65;;;7.72;;
20036;SDS011;10179;42.640;23.312;2024-01-07T09:09:48;12.68;;;7.90;;
20036;SDS011;10179;42.640;23.312;2024-01-07T09:12:14;11.30;;;7.55;;
20036;SDS011;10179;42.640;23.312;2024-01-07T09:14:39;12.02;;;7.18;;
20036;SDS011;10179;42.640;23.312;2024-01-07T09:17:05;10.18;;;7.13;;
20036;SDS011;10179;42.640;23.312;2024-01-07T09:19:30;10.80;;;6.97;;
20036;SDS011;10179;42.640;23.312;2024-01-07T09:21:56;13.77;;;7.75;;
20036;SDS011;10179;42.640;23.312;2024-01-07T09:24:21;12.55;;;7.70;;
20036;SDS011;10179;42.640;23.312;2024-01-07T09:26:46;12.65;;;7.53;;
20036;SDS011;10179;42.640;23.312;2024-01-07T09:29:12;13.25;;;7.85;;
20036;SDS011;10179;42.640;23.312;2024-01-07T09:31:38;11.85;;;8.07;;
20036;SDS011;10179;42.640;23.312;2024-01-07T09:34:04;14.20;;;8.98;;
20036;SDS011;10179;42.640;23.312;2024-01-07T09:36:31;14.07;;;8.57;;
20036;SDS011;10179;42.640;23.312;2024-01-07T09:38:57;14.82;;;9.20;;
20036;SDS011;10179;42.640;23.312;2024-01-07T09:41:22;12.70;;;8.10;;
20036;SDS011;10179;42.640;23.312;2024-01-07T09:43:48;15.07;;;8.70;;
20036;SDS011;10179;42.640;23.312;2024-01-07T09:46:14;14.20;;;9.05;;
20036;SDS011;10179;42.640;23.312;2024-01-07T09:48:40;14.48;;;9.00;;
20036;SDS011;10179;42.640;23.312;2024-01-07T09:51:06;14.52;;;8.15;;
20036;SDS011;10179;42.640;23.312;2024-01-07T09:53:34;12.52;;;7.63;;
20036;SDS011;10179;42.640;23.312;2024-01-07T09:58:36;13.20;;;6.35;;
20036;SDS011;10179;42.640;23.312;2024-01-07T10:01:02;9.23;;;5.53;;
20036;SDS011;10179;42.640;23.312;2024-01-07T10:03:30;9.80;;;5.93;;
20036;SDS011;10179;42.640;23.312;2024-01-07T10:05:55;9.52;;;6.38;;
20036;SDS011;10179;42.640;23.312;2024-01-07T10:08:21;10.30;;;6.15;;
20036;SDS011;10179;42.640;23.312;2024-01-07T10:10:48;9.40;;;6.00;;
20036;SDS011;10179;42.640;23.312;2024-01-07T10:13:15;10.32;;;6.45;;
20036;SDS011;10179;42.640;23.312;2024-01-07T10:15:40;10.77;;;7.03;;
20036;SDS011;10179;42.640;23.312;2024-01-07T10:18:06;11.93;;;7.43;;
20036;SDS011;10179;42.640;23.312;2024-01-07T10:20:32;14.25;;;7.13;;
20036;SDS011;10179;42.640;23.312;2024-01-07T10:23:01;12.05;;;7.15;;
20036;SDS011;10179;42.640;23.312;2024-01-07T10:25:28;10.82;;;7.80;;
20036;SDS011;10179;42.640;23.312;2024-01-07T10:27:58;13.45;;;7.57;;
20036;SDS011;10179;42.640;23.312;2024-01-07T10:30:25;14.20;;;7.63;;
20036;SDS011;10179;42.640;23.312;2024-01-07T10:32:54;11.23;;;7.88;;
20036;SDS011;10179;42.640;23.312;2024-01-07T10:35:21;11.52;;;6.68;;
20036;SDS011;10179;42.640;23.312;2024-01-07T10:37:54;15.00;;;7.38;;
20036;SDS011;10179;42.640;23.312;2024-01-07T10:40:20;10.65;;;6.50;;
20036;SDS011;10179;42.640;23.312;2024-01-07T10:42:45;11.88;;;7.97;;
20036;SDS011;10179;42.640;23.312;2024-01-07T10:45:12;12.95;;;8.90;;
20036;SDS011;10179;42.640;23.312;2024-01-07T10:47:37;12.80;;;7.78;;
20036;SDS011;10179;42.640;23.312;2024-01-07T10:50:06;13.82;;;8.40;;
20036;SDS011;10179;42.640;23.312;2024-01-07T10:52:36;14.52;;;8.23;;
20036;SDS011;10179;42.640;23.312;2024-01-07T10:55:08;11.68;;;7.47;;
20036;SDS011;10179;42.640;23.312;2024-01-07T11:00:07;12.90;;;7.15;;
20036;SDS011;10179;42.640;23.312;2024-01-07T11:02:42;11.55;;;6.63;;
20036;SDS011;10179;42.640;23.312;2024-01-07T11:05:17;11.90;;;6.57;;
20036;SDS011;10179;42.640;23.312;2024-01-07T11:07:57;11.45;;;7.32;;
20036;SDS011;10179;42.640;23.312;2024-01-07T11:10:37;9.48;;;6.45;;
20036;SDS011;10179;42.640;23.312;2024-01-07T11:13:06;10.25;;;6.60;;
20036;SDS011;10179;42.640;23.312;2024-01-07T11:18:22;8.88;;;5.70;;
20036;SDS011;10179;42.640;23.312;2024-01-07T11:20:48;11.70;;;6.50;;
20036;SDS011;10179;42.640;23.312;2024-01-07T11:23:35;9.65;;;6.43;;
20036;SDS011;10179;42.640;23.312;2024-01-07T11:26:05;10.55;;;5.95;;
20036;SDS011;10179;42.640;23.312;2024-01-07T11:28:44;12.90;;;6.30;;
20036;SDS011;10179;42.640;23.312;2024-01-07T11:31:13;11.18;;;6.03;;
20036;SDS011;10179;42.640;23.312;2024-01-07T11:33:42;10.77;;;6.70;;
20036;SDS011;10179;42.640;23.312;2024-01-07T11:36:12;8.82;;;6.00;;
20036;SDS011;10179;42.640;23.312;2024-01-07T11:38:45;10.23;;;6.43;;
20036;SDS011;10179;42.640;23.312;2024-01-07T11:41:13;11.60;;;5.93;;
20036;SDS011;10179;42.640;23.312;2024-01-07T11:43:51;10.90;;;6.25;;
20036;SDS011;10179;42.640;23.312;2024-01-07T11:46:18;9.35;;;6.00;;
20036;SDS011;10179;42.640;23.312;2024-01-07T11:48:44;9.68;;;5.70;;
20036;SDS011;10179;42.640;23.312;2024-01-07T11:51:11;12.45;;;6.05;;
20036;SDS011;10179;42.640;23.312;2024-01-07T11:53:36;11.43;;;6.50;;
20036;SDS011;10179;42.640;23.312;2024-01-07T11:56:02;10.13;;;5.38;;
20036;SDS011;10179;42.640;23.312;2024-01-07T11:58:27;10.30;;;6.22;;
20036;SDS011;10179;42.640;23.312;2024-01-07T12:00:53;8.70;;;5.72;;
20036;SDS011;10179;42.640;23.312;2024-01-07T12:03:18;12.10;;;5.72;;
20036;SDS011;10179;42.640;23.312;2024-01-07T12:05:44;10.05;;;6.03;;
20036;SDS011;10179;42.640;23.312;2024-01-07T12:08:09;8.80;;;5.32;;
20036;SDS011;10179;42.640;23.312;2024-01-07T12:10:37;11.93;;;5.70;;
20036;SDS011;10179;42.640;23.312;2024-01-07T12:13:02;8.43;;;5.18;;
20036;SDS011;10179;42.640;23.312;2024-01-07T12:15:28;9.57;;;5.30;;
20036;SDS011;10179;42.640;23.312;2024-01-07T12:17:55;10.02;;;5.60;;
20036;SDS011;10179;42.640;23.312;2024-01-07T12:20:22;9.32;;;5.78;;
20036;SDS011;10179;42.640;23.312;2024-01-07T12:22:47;9.50;;;5.53;;
20036;SDS011;10179;42.640;23.312;2024-01-07T12:25:13;10.15;;;6.07;;
20036;SDS011;10179;42.640;23.312;2024-01-07T12:27:40;10.77;;;6.35;;
20036;SDS011;10179;42.640;23.312;2024-01-07T12:30:06;9.88;;;5.80;;
20036;SDS011;10179;42.640;23.312;2024-01-07T12:32:32;11.77;;;6.03;;
20036;SDS011;10179;42.640;23.312;2024-01-07T12:35:00;9.38;;;5.88;;
20036;SDS011;10179;42.640;23.312;2024-01-07T12:37:26;7.85;;;5.20;;
20036;SDS011;10179;42.640;23.312;2024-01-07T12:39:53;8.52;;;5.53;;
20036;SDS011;10179;42.640;23.312;2024-01-07T12:42:18;9.48;;;5.40;;
20036;SDS011;10179;42.640;23.312;2024-01-07T12:44:45;7.28;;;5.07;;
20036;SDS011;10179;42.640;23.312;2024-01-07T12:47:10;9.60;;;5.38;;
20036;SDS011;10179;42.640;23.312;2024-01-07T12:49:36;9.23;;;5.10;;
20036;SDS011;10179;42.640;23.312;2024-01-07T12:52:01;9.27;;;6.03;;
20036;SDS011;10179;42.640;23.312;2024-01-07T12:54:27;12.90;;;6.20;;
20036;SDS011;10179;42.640;23.312;2024-01-07T12:56:52;11.40;;;6.65;;
20036;SDS011;10179;42.640;23.312;2024-01-07T12:59:17;11.30;;;6.65;;
20036;SDS011;10179;42.640;23.312;2024-01-07T13:01:43;10.13;;;6.65;;
20036;SDS011;10179;42.640;23.312;2024-01-07T13:04:08;11.63;;;7.68;;
20036;SDS011;10179;42.640;23.312;2024-01-07T13:06:34;14.23;;;7.18;;
20036;SDS011;10179;42.640;23.312;2024-01-07T13:09:00;12.57;;;6.68;;
20036;SDS011;10179;42.640;23.312;2024-01-07T13:11:25;13.68;;;7.32;;
20036;SDS011;10179;42.640;23.312;2024-01-07T13:13:51;10.52;;;6.63;;
20036;SDS011;10179;42.640;23.312;2024-01-07T13:16:16;11.48;;;6.25;;
20036;SDS011;10179;42.640;23.312;2024-01-07T13:18:43;11.18;;;6.45;;
20036;SDS011;10179;42.640;23.312;2024-01-07T13:21:09;10.45;;;6.07;;
20036;SDS011;10179;42.640;23.312;2024-01-07T13:23:34;9.50;;;5.85;;
20036;SDS011;10179;42.640;23.312;2024-01-07T13:26:00;10.05;;;5.28;;
20036;SDS011;10179;42.640;23.312;2024-01-07T13:28:31;8.52;;;4.30;;
20036;SDS011;10179;42.640;23.312;2024-01-07T13:30:56;7.75;;;4.63;;
20036;SDS011;10179;42.640;23.312;2024-01-07T13:33:22;7.35;;;4.65;;
20036;SDS011;10179;42.640;23.312;2024-01-07T13:35:47;7.32;;;5.30;;
20036;SDS011;10179;42.640;23.312;2024-01-07T13:38:12;10.38;;;5.43;;
20036;SDS011;10179;42.640;23.312;2024-01-07T13:40:38;9.88;;;5.50;;
20036;SDS011;10179;42.640;23.312;2024-01-07T13:43:03;7.45;;;5.20;;
20036;SDS011;10179;42.640;23.312;2024-01-07T13:45:29;18.65;;;7.50;;
20036;SDS011;10179;42.640;23.312;2024-01-07T13:47:54;17.08;;;8.15;;
20036;SDS011;10179;42.640;23.312;2024-01-07T13:50:21;17.52;;;8.68;;
20036;SDS011;10179;42.640;23.312;2024-01-07T13:52:46;48.28;;;31.90;;
20036;SDS011;10179;42.640;23.312;2024-01-07T13:55:12;29.15;;;19.40;;
20036;SDS011;10179;42.640;23.312;2024-01-07T13:57:38;20.05;;;11.30;;
20036;SDS011;10179;42.640;23.312;2024-01-07T14:00:04;20.35;;;10.05;;
20036;SDS011;10179;42.640;23.312;2024-01-07T14:02:34;18.27;;;9.18;;
20036;SDS011;10179;42.640;23.312;2024-01-07T14:05:00;15.93;;;8.68;;
20036;SDS011;10179;42.640;23.312;2024-01-07T14:07:25;20.98;;;9.18;;
20036;SDS011;10179;42.640;23.312;2024-01-07T14:09:51;19.25;;;9.57;;
20036;SDS011;10179;42.640;23.312;2024-01-07T14:12:17;24.73;;;10.43;;
20036;SDS011;10179;42.640;23.312;2024-01-07T14:14:42;22.98;;;10.32;;
20036;SDS011;10179;42.640;23.312;2024-01-07T14:17:08;30.95;;;14.07;;
20036;SDS011;10179;42.640;23.312;2024-01-07T14:19:33;39.65;;;15.73;;
20036;SDS011;10179;42.640;23.312;2024-01-07T14:21:59;21.10;;;9.40;;
20036;SDS011;10179;42.640;23.312;2024-01-07T14:24:25;27.25;;;11.52;;
20036;SDS011;10179;42.640;23.312;2024-01-07T14:26:51;25.88;;;11.95;;